Time;durP1;ratioP1;P1;durP2;ratioP2;P2;SDS_P1;SDS_P2;PMS_P1;PMS_P2;Temp;Humidity;BMP_temperature;BMP_pressure;BME280_temperature;BME280_humidity;BME280_pressure;Samples;Min_cycle;Max_cycle;Signal;HPM_P1;HPM_P2
2022/02/05 00:00:29;;;;;;;9.27;3.63;;;5.60;99.90;;;;;;5036114;28;20489;-86
2022/02/05 00:03:08;;;;;;;10.60;3.90;;;5.60;99.90;;;;;;5053564;28;20060;-86
2022/02/05 00:40:44;;;;;;;9.60;3.00;;;5.50;99.90;;;;;;5053187;28;20044;-86
2022/02/05 00:43:03;;;;;;;6.07;3.08;;;5.50;99.90;;;;;;5053291;28;20033;-86
2022/02/05 00:45:33;;;;;;;9.23;3.43;;;5.50;99.90;;;;;;5052782;28;20036;-86
2022/02/05 00:48:01;;;;;;;6.70;2.97;;;5.50;99.90;;;;;;5035003;28;20074;-86
2022/02/05 00:50:28;;;;;;;8.00;3.20;;;5.50;99.90;;;;;;5052870;28;20025;-86
2022/02/05 00:53:02;;;;;;;9.93;3.17;;;5.40;99.90;;;;;;5034942;28;20032;-86
2022/02/05 00:55:32;;;;;;;7.13;2.90;;;5.40;99.90;;;;;;5034096;28;20036;-86
2022/02/05 00:58:02;;;;;;;8.63;3.03;;;5.40;99.90;;;;;;5052772;28;20025;-86
2022/02/05 01:00:29;;;;;;;9.53;3.27;;;5.40;99.90;;;;;;5034915;28;20116;-86
2022/02/05 01:02:56;;;;;;;7.17;2.93;;;5.40;99.90;;;;;;5052838;28;20025;-86
2022/02/05 01:05:22;;;;;;;6.43;2.70;;;5.40;99.90;;;;;;5052500;28;20100;-87
2022/02/05 01:07:49;;;;;;;8.17;3.13;;;5.40;99.90;;;;;;5052702;28;20476;-86
2022/02/05 01:10:16;;;;;;;6.60;2.63;;;5.40;99.90;;;;;;5034901;28;20037;-86
2022/02/05 01:12:48;;;;;;;7.07;2.60;;;5.40;99.90;;;;;;5034539;28;20067;-86
2022/02/05 01:15:18;;;;;;;10.27;2.87;;;5.40;99.90;;;;;;5034602;28;20025;-86
2022/02/05 01:17:50;;;;;;;7.63;2.58;;;5.40;99.90;;;;;;5034627;28;20040;-88
2022/02/05 01:22:46;;;;;;;6.67;2.40;;;5.40;99.90;;;;;;5052306;28;20086;-86
2022/02/05 01:25:14;;;;;;;11.83;2.87;;;5.30;99.90;;;;;;5051999;28;20029;-86
2022/02/05 01:27:47;;;;;;;6.70;1.95;;;5.30;99.90;;;;;;5017798;28;20394;-86
2022/02/05 01:32:54;;;;;;;6.50;2.50;;;5.30;99.90;;;;;;5052066;28;20033;-86
2022/02/05 01:35:36;;;;;;;8.17;2.50;;;5.30;99.90;;;;;;5051861;28;20048;-86
2022/02/05 01:49:49;;;;;;;7.40;3.10;;;5.40;99.90;;;;;;5051827;28;20474;-86
2022/02/05 01:57:09;;;;;;;8.65;2.83;;;5.30;99.90;;;;;;5051138;28;20065;-86
2022/02/05 02:05:10;;;;;;;10.80;2.70;;;5.30;99.90;;;;;;5050562;28;20068;-86
2022/02/05 02:15:46;;;;;;;8.03;2.50;;;5.30;99.90;;;;;;5050664;28;20036;-86
2022/02/05 02:18:24;;;;;;;9.50;2.77;;;5.30;99.90;;;;;;5032984;28;20024;-86
2022/02/05 02:28:44;;;;;;;9.37;3.13;;;5.20;99.90;;;;;;5050289;28;20136;-87
2022/02/05 02:31:16;;;;;;;9.13;2.73;;;5.20;99.90;;;;;;5032506;28;20033;-86
2022/02/05 02:33:46;;;;;;;8.63;2.80;;;5.20;99.90;;;;;;5032432;28;20021;-86
2022/02/05 02:36:22;;;;;;;8.47;2.80;;;5.20;99.90;;;;;;5050328;28;20028;-86
2022/02/05 02:38:52;;;;;;;6.40;2.40;;;5.30;99.90;;;;;;5050332;28;20079;-86
2022/02/05 02:41:25;;;;;;;;;;;5.30;99.90;;;;;;5050761;28;20404;-86
2022/02/05 02:43:51;;;;;;;9.03;2.77;;;5.30;99.90;;;;;;5050400;28;19999;-86
2022/02/05 02:46:16;;;;;;;10.73;2.73;;;5.30;99.90;;;;;;5050143;28;20064;-86
2022/02/05 02:48:45;;;;;;;9.57;3.00;;;5.20;99.90;;;;;;5032319;28;20043;-86
2022/02/05 02:58:49;;;;;;;12.00;2.77;;;5.20;99.90;;;;;;5050783;28;20400;-86
2022/02/05 03:01:19;;;;;;;11.00;2.63;;;5.20;99.90;;;;;;5033311;28;20025;-86
2022/02/05 03:03:45;;;;;;;12.05;2.58;;;5.20;99.90;;;;;;5050830;28;20053;-86
2022/02/05 03:06:11;;;;;;;8.20;3.03;;;5.20;99.90;;;;;;5050987;28;20244;-86
2022/02/05 03:08:37;;;;;;;10.53;3.07;;;5.20;99.90;;;;;;5050958;28;20052;-86
2022/02/05 03:11:03;;;;;;;12.67;2.80;;;5.20;99.90;;;;;;5033030;28;20036;-86
2022/02/05 03:13:29;;;;;;;11.53;3.30;;;5.20;99.90;;;;;;5050290;28;20036;-86
2022/02/05 03:15:55;;;;;;;10.23;2.57;;;5.20;99.90;;;;;;5051084;28;20029;-86
2022/02/05 03:18:46;;;;;;;10.80;2.63;;;5.20;99.90;;;;;;5052594;28;20415;-86
2022/02/05 03:21:11;;;;;;;8.50;2.60;;;5.20;99.90;;;;;;5054749;28;20126;-86
2022/02/05 03:23:37;;;;;;;10.73;2.97;;;5.30;99.90;;;;;;5054281;28;20060;-86
2022/02/05 03:26:03;;;;;;;9.67;2.40;;;5.20;99.90;;;;;;5054493;28;20037;-86
2022/02/05 03:28:30;;;;;;;8.43;2.60;;;5.20;99.90;;;;;;5020113;28;20029;-86
2022/02/05 03:30:56;;;;;;;10.63;2.90;;;5.20;99.90;;;;;;5036591;28;20029;-86
2022/02/05 03:33:22;;;;;;;10.63;2.50;;;5.20;99.90;;;;;;5036210;28;20511;-86
2022/02/05 03:35:48;;;;;;;9.53;2.40;;;5.20;99.90;;;;;;5036477;28;20057;-86
2022/02/05 03:38:14;;;;;;;7.33;2.30;;;5.20;99.90;;;;;;5054377;28;20055;-86
2022/02/05 03:40:39;;;;;;;13.33;3.67;;;5.30;99.90;;;;;;5019817;28;20481;-86
2022/02/05 03:43:05;;;;;;;11.10;2.37;;;5.20;99.90;;;;;;5036376;28;20035;-86
2022/02/05 03:45:32;;;;;;;11.90;2.43;;;5.20;99.90;;;;;;5036348;28;20045;-86
2022/02/05 03:47:59;;;;;;;10.13;2.53;;;5.20;99.90;;;;;;5019784;28;20033;-86
2022/02/05 03:50:25;;;;;;;10.83;2.70;;;5.20;99.90;;;;;;5054137;28;20027;-86
2022/02/05 03:52:50;;;;;;;9.30;2.63;;;5.20;99.90;;;;;;5053805;28;20025;-86
2022/02/05 03:55:16;;;;;;;11.07;2.97;;;5.20;99.90;;;;;;5035792;28;20025;-86
2022/02/05 03:57:43;;;;;;;8.67;2.93;;;5.10;99.90;;;;;;5053906;28;20034;-86
2022/02/05 04:00:10;;;;;;;10.93;2.60;;;5.10;99.90;;;;;;5036218;28;20029;-86
2022/02/05 04:02:38;;;;;;;12.43;2.60;;;5.20;99.90;;;;;;5053974;28;20040;-86
2022/02/05 04:05:05;;;;;;;11.53;2.73;;;5.10;99.90;;;;;;5053693;28;20037;-86
2022/02/05 04:07:34;;;;;;;10.57;2.93;;;5.10;99.90;;;;;;5053750;28;20048;-86
2022/02/05 04:10:03;;;;;;;11.88;2.80;;;5.20;99.90;;;;;;5035762;28;20035;-86
2022/02/05 04:17:59;;;;;;;9.27;2.10;;;5.20;99.90;;;;;;5053599;28;20032;-86
2022/02/05 04:20:25;;;;;;;14.63;2.60;;;5.10;99.90;;;;;;5053554;28;20373;-86
2022/02/05 04:22:51;;;;;;;9.67;2.60;;;5.20;99.90;;;;;;5035696;28;20498;-86
2022/02/05 04:25:17;;;;;;;13.03;3.00;;;5.10;99.90;;;;;;5035346;28;20126;-86
2022/02/05 04:27:43;;;;;;;9.83;2.93;;;5.20;99.90;;;;;;5053531;28;20056;-86
2022/02/05 04:30:09;;;;;;;10.67;2.43;;;5.20;99.90;;;;;;5034617;28;20032;-86
2022/02/05 04:32:35;;;;;;;11.97;2.70;;;5.10;99.90;;;;;;5053089;28;20036;-83
2022/02/05 04:35:00;;;;;;;11.77;2.50;;;5.10;99.90;;;;;;5035531;28;20033;-83
2022/02/05 04:37:28;;;;;;;6.33;2.50;;;5.10;99.90;;;;;;5035316;28;20244;-84
2022/02/05 04:40:08;;;;;;;10.47;2.73;;;5.20;99.90;;;;;;5053341;28;20025;-83
2022/02/05 04:43:26;;;;;;;9.97;2.20;;;5.20;99.90;;;;;;5035206;28;20057;-83
2022/02/05 04:50:50;;;;;;;11.82;2.70;;;5.20;99.90;;;;;;5035117;28;20065;-84
2022/02/05 04:53:40;;;;;;;12.43;2.70;;;5.20;99.90;;;;;;5052492;28;20037;-83
2022/02/05 05:01:38;;;;;;;9.80;2.70;;;5.10;99.90;;;;;;5052886;28;20095;-84
2022/02/05 05:06:49;;;;;;;9.70;2.50;;;5.20;99.90;;;;;;5035032;28;20108;-84
2022/02/05 05:19:59;;;;;;;12.60;2.40;;;5.10;99.90;;;;;;5052371;28;20395;-84
2022/02/05 05:22:25;;;;;;;16.20;2.80;;;5.00;99.90;;;;;;5052291;28;20119;-85
2022/02/05 05:24:51;;;;;;;10.50;2.47;;;5.10;99.90;;;;;;5051799;28;20078;-85
2022/02/05 05:27:16;;;;;;;9.50;2.77;;;5.10;99.90;;;;;;5052229;28;20033;-84
2022/02/05 05:29:42;;;;;;;6.60;2.40;;;5.00;99.90;;;;;;5034343;28;20546;-85
2022/02/05 05:32:08;;;;;;;9.57;2.50;;;5.00;99.90;;;;;;5052220;28;20033;-85
2022/02/05 05:34:34;;;;;;;14.83;2.47;;;5.00;99.90;;;;;;5051788;28;20114;-85
2022/02/05 05:37:01;;;;;;;9.07;2.57;;;5.00;99.90;;;;;;5052146;28;20480;-85
2022/02/05 05:39:28;;;;;;;13.80;2.67;;;5.00;99.90;;;;;;5051819;28;20076;-85
2022/02/05 05:41:54;;;;;;;13.00;2.33;;;5.00;99.90;;;;;;5033845;28;20072;-84
2022/02/05 05:52:22;;;;;;;9.87;2.70;;;5.00;99.90;;;;;;5051879;28;20028;-85
2022/02/05 05:54:49;;;;;;;8.47;2.47;;;5.00;99.90;;;;;;5148243;22;20037;-71
2022/02/05 05:57:15;;;;;;;7.67;2.83;;;5.00;99.90;;;;;;5034212;28;20125;-70
2022/02/05 05:59:43;;;;;;;12.43;2.90;;;5.00;99.90;;;;;;5052030;28;20032;-71
2022/02/05 06:02:09;;;;;;;13.83;2.57;;;5.10;99.90;;;;;;5052162;28;20086;-71
2022/02/05 06:04:36;;;;;;;11.00;2.97;;;5.00;99.90;;;;;;5051777;28;20107;-71
2022/02/05 06:07:03;;;;;;;9.90;2.73;;;5.10;99.90;;;;;;5052105;28;20033;-71
2022/02/05 06:09:29;;;;;;;9.13;2.50;;;5.10;99.90;;;;;;5034070;28;20032;-71
2022/02/05 06:11:55;;;;;;;7.60;2.50;;;5.00;99.90;;;;;;5052042;28;20044;-71
2022/02/05 06:14:25;;;;;;;8.27;2.80;;;5.10;99.90;;;;;;5051684;28;20024;-71
2022/02/05 06:17:03;;;;;;;11.30;2.80;;;5.10;99.90;;;;;;5033836;28;20018;-71
2022/02/05 06:19:29;;;;;;;14.70;3.00;;;5.00;99.90;;;;;;5051638;28;20438;-71
2022/02/05 06:21:54;;;;;;;10.50;2.60;;;5.10;99.90;;;;;;5051658;28;20116;-70
2022/02/05 06:24:20;;;;;;;10.20;2.50;;;5.10;99.90;;;;;;5051556;28;20033;-70
2022/02/05 06:26:46;;;;;;;8.17;2.60;;;5.10;99.90;;;;;;5051798;28;20028;-71
2022/02/05 06:29:12;;;;;;;8.37;2.90;;;5.00;99.90;;;;;;5051332;28;20041;-70
2022/02/05 06:31:38;;;;;;;12.13;3.17;;;5.00;99.90;;;;;;5051513;28;20413;-71
2022/02/05 06:34:04;;;;;;;11.10;3.13;;;5.00;99.90;;;;;;5033817;28;20021;-71
2022/02/05 06:36:30;;;;;;;12.57;2.73;;;5.00;99.90;;;;;;5052024;28;20503;-72
2022/02/05 06:38:56;;;;;;;12.13;2.87;;;5.00;99.90;;;;;;5033601;28;20083;-71
2022/02/05 06:41:22;;;;;;;9.87;2.80;;;5.00;99.90;;;;;;5051650;28;20078;-71
2022/02/05 06:43:48;;;;;;;8.63;2.80;;;5.00;99.90;;;;;;5033467;28;20029;-71
2022/02/05 06:46:14;;;;;;;14.90;3.17;;;4.90;99.90;;;;;;5033381;28;20029;-71
2022/02/05 06:48:40;;;;;;;10.30;2.60;;;4.90;99.90;;;;;;5051443;28;20032;-72
2022/02/05 06:51:06;;;;;;;9.93;2.90;;;4.90;99.90;;;;;;5051327;28;20029;-71
2022/02/05 06:53:31;;;;;;;8.07;2.43;;;4.90;99.90;;;;;;5053393;28;20025;-71
2022/02/05 06:55:57;;;;;;;16.73;4.67;;;4.90;99.90;;;;;;5055393;28;20446;-71
2022/02/05 06:58:23;;;;;;;9.37;2.60;;;4.90;99.90;;;;;;5055271;28;20032;-71
2022/02/05 07:00:49;;;;;;;11.50;2.53;;;4.90;99.90;;;;;;5055392;28;20036;-71
2022/02/05 07:03:17;;;;;;;10.60;2.70;;;4.90;99.90;;;;;;5055378;28;20028;-71
2022/02/05 07:05:44;;;;;;;9.60;2.73;;;4.90;99.90;;;;;;5037512;28;20115;-71
2022/02/05 07:08:10;;;;;;;10.57;2.40;;;4.90;99.90;;;;;;5055134;28;20397;-71
2022/02/05 07:10:36;;;;;;;12.90;2.63;;;4.90;99.90;;;;;;5055352;28;20112;-71
2022/02/05 07:13:14;;;;;;;11.50;2.63;;;4.90;99.90;;;;;;5037099;28;20086;-72
2022/02/05 07:15:47;;;;;;;11.13;2.87;;;4.90;99.90;;;;;;5055029;28;20033;-71
2022/02/05 07:20:48;;;;;;;10.53;3.00;;;4.80;99.90;;;;;;5054825;28;20575;-71
2022/02/05 07:31:22;;;;;;;11.40;3.00;;;4.80;99.90;;;;;;5054487;28;20082;-72
2022/02/05 07:33:48;;;;;;;13.00;4.03;;;4.90;99.90;;;;;;5054214;28;20039;-71
2022/02/05 07:36:16;;;;;;;13.53;3.13;;;4.90;99.90;;;;;;5054482;28;20028;-71
2022/02/05 07:38:42;;;;;;;13.67;2.73;;;4.90;99.90;;;;;;5036536;28;20029;-71
2022/02/05 07:41:08;;;;;;;10.67;3.63;;;4.90;99.90;;;;;;5054655;28;20040;-71
2022/02/05 07:43:35;;;;;;;13.80;3.43;;;4.90;99.90;;;;;;5054636;28;20029;-71
2022/02/05 07:46:03;;;;;;;14.93;4.80;;;4.90;99.90;;;;;;5054875;28;20112;-71
2022/02/05 07:48:30;;;;;;;13.00;4.67;;;4.90;99.90;;;;;;5036620;28;20037;-71
2022/02/05 07:50:56;;;;;;;14.17;3.30;;;4.90;99.90;;;;;;5054541;28;20374;-71
2022/02/05 07:53:23;;;;;;;12.43;3.27;;;4.90;99.90;;;;;;5054331;28;20083;-72
2022/02/05 07:55:49;;;;;;;12.50;3.07;;;5.00;99.90;;;;;;5036480;28;20111;-71
2022/02/05 07:58:15;;;;;;;9.93;2.43;;;4.90;99.90;;;;;;5054488;28;20108;-71
2022/02/05 08:00:41;;;;;;;12.23;3.00;;;4.90;99.90;;;;;;5054451;28;20028;-71
2022/02/05 08:03:07;;;;;;;11.60;3.37;;;5.00;99.90;;;;;;5036126;28;20027;-71
2022/02/05 08:05:33;;;;;;;12.83;2.93;;;4.90;99.90;;;;;;5053929;28;20106;-71
2022/02/05 08:07:59;;;;;;;13.80;3.20;;;4.90;99.90;;;;;;5054036;28;20078;-71
2022/02/05 08:10:30;;;;;;;11.37;3.00;;;4.90;99.90;;;;;;5036393;28;20025;-71
2022/02/05 08:12:58;;;;;;;10.60;3.10;;;4.90;99.90;;;;;;5036216;28;20025;-71
2022/02/05 08:15:27;;;;;;;13.00;3.27;;;4.90;99.90;;;;;;5053835;28;20485;-71
2022/02/05 08:17:54;;;;;;;10.60;3.03;;;4.90;99.90;;;;;;5036182;28;20171;-70
2022/02/05 08:20:20;;;;;;;11.20;3.40;;;4.90;99.90;;;;;;5054308;28;20108;-71
2022/02/05 08:22:46;;;;;;;11.27;4.00;;;5.00;99.90;;;;;;5053970;28;20529;-71
2022/02/05 08:25:12;;;;;;;10.60;3.50;;;5.00;99.90;;;;;;5053447;28;20394;-71
2022/02/05 08:27:40;;;;;;;13.27;4.13;;;5.00;99.90;;;;;;5053670;28;20032;-71
2022/02/05 08:30:10;;;;;;;12.70;4.00;;;5.00;99.90;;;;;;5036024;28;20032;-71
2022/02/05 08:32:37;;;;;;;15.00;2.93;;;5.00;99.90;;;;;;5053539;28;20509;-71
2022/02/05 08:35:05;;;;;;;15.97;3.60;;;5.10;99.90;;;;;;5053204;28;20443;-71
2022/02/05 08:37:35;;;;;;;11.27;3.10;;;5.10;99.90;;;;;;5053600;28;20036;-71
2022/02/05 08:40:03;;;;;;;16.57;3.30;;;5.10;99.90;;;;;;5053569;28;20028;-71
2022/02/05 08:42:29;;;;;;;10.87;2.67;;;5.10;99.90;;;;;;5053648;28;20037;-71
2022/02/05 08:44:55;;;;;;;12.43;3.20;;;5.10;99.90;;;;;;5035365;28;20036;-72
2022/02/05 08:47:21;;;;;;;10.77;2.70;;;5.10;99.90;;;;;;5053435;28;20556;-71
2022/02/05 08:49:47;;;;;;;11.47;2.90;;;5.10;99.90;;;;;;5053496;28;20025;-71
2022/02/05 08:52:13;;;;;;;7.83;2.73;;;5.10;99.90;;;;;;5053310;28;20032;-71
2022/02/05 08:54:40;;;;;;;14.53;3.33;;;5.10;99.90;;;;;;5053039;28;20036;-73
2022/02/05 08:57:10;;;;;;;13.37;2.70;;;5.10;99.90;;;;;;5053130;28;20466;-71
2022/02/05 08:59:52;;;;;;;;;;;5.10;99.90;;;;;;5053682;28;20104;-72
2022/02/05 09:03:10;;;;;;;14.10;3.03;;;5.10;99.90;;;;;;5035445;28;19948;-72
2022/02/05 09:07:32;;;;;;;11.83;3.03;;;5.20;99.90;;;;;;5052988;28;20040;-71
2022/02/05 09:15:07;;;;;;;14.32;3.08;;;5.30;99.90;;;;;;5052293;28;20029;-72
2022/02/05 09:17:34;;;;;;;15.83;2.80;;;5.30;99.90;;;;;;5052523;28;20436;-72
2022/02/05 09:20:00;;;;;;;11.90;2.50;;;5.40;99.90;;;;;;5052657;28;20052;-72
2022/02/05 09:22:28;;;;;;;11.37;2.83;;;5.40;99.90;;;;;;5052685;28;20454;-71
2022/02/05 09:24:57;;;;;;;14.90;2.90;;;5.40;99.90;;;;;;5052673;28;20025;-71
2022/02/05 09:27:23;;;;;;;;;;;5.40;99.90;;;;;;5035245;28;20028;-72
2022/02/05 09:30:02;;;;;;;11.37;3.00;;;5.50;99.90;;;;;;5052648;28;19915;-72
2022/02/05 09:32:28;;;;;;;10.13;2.53;;;5.50;99.90;;;;;;5052463;28;20029;-71
2022/02/05 09:34:55;;;;;;;15.40;3.67;;;5.40;99.90;;;;;;5052372;28;20384;-72
2022/02/05 09:37:21;;;;;;;13.50;4.50;;;5.50;99.90;;;;;;5052550;28;20029;-71
2022/02/05 09:39:48;;;;;;;12.93;4.03;;;5.50;99.90;;;;;;5052875;28;20469;-71
2022/02/05 09:42:15;;;;;;;17.57;4.30;;;5.60;99.90;;;;;;5052398;28;20114;-72
2022/02/05 09:44:41;;;;;;;16.77;4.37;;;5.60;99.90;;;;;;5052078;28;20043;-72
2022/02/05 09:47:08;;;;;;;15.13;2.73;;;5.70;99.90;;;;;;5034622;28;20037;-72
2022/02/05 09:49:34;;;;;;;9.03;2.60;;;5.70;99.90;;;;;;5034688;28;20096;-72
2022/02/05 09:52:13;;;;;;;12.13;2.60;;;5.70;99.90;;;;;;5034949;28;20029;-73
2022/02/05 09:54:42;;;;;;;15.00;3.78;;;5.70;99.90;;;;;;5052710;28;20029;-72
2022/02/05 09:57:08;;;;;;;12.80;3.97;;;5.70;99.90;;;;;;5034514;28;20047;-72
2022/02/05 09:59:45;;;;;;;15.10;2.90;;;5.70;99.90;;;;;;5051857;28;20481;-73
2022/02/05 10:02:23;;;;;;;12.53;3.07;;;5.80;99.90;;;;;;5033991;28;20400;-72
2022/02/05 10:05:07;;;;;;;10.30;2.47;;;5.80;99.90;;;;;;5051614;28;20136;-72
2022/02/05 10:07:35;;;;;;;9.87;2.50;;;5.80;99.90;;;;;;5034058;28;20036;-72
2022/02/05 10:10:05;;;;;;;10.87;2.70;;;5.80;99.90;;;;;;5034360;28;20037;-72
2022/02/05 10:12:32;;;;;;;16.30;2.93;;;5.80;99.90;;;;;;5034096;28;20124;-71
2022/02/05 10:15:01;;;;;;;9.60;2.37;;;5.90;99.90;;;;;;5052124;28;20025;-71
2022/02/05 10:17:44;;;;;;;10.90;2.53;;;5.90;99.90;;;;;;5051885;28;20029;-71
2022/02/05 10:20:12;;;;;;;14.40;2.90;;;5.90;99.90;;;;;;5051741;28;20048;-71
2022/02/05 10:22:44;;;;;;;13.87;3.07;;;6.00;99.90;;;;;;5051696;28;20036;-71
2022/02/05 10:25:28;;;;;;;14.07;2.73;;;6.00;99.90;;;;;;5033817;28;20028;-72
2022/02/05 10:27:55;;;;;;;9.50;2.40;;;6.10;99.90;;;;;;5051589;28;20044;-71
2022/02/05 10:30:24;;;;;;;14.63;3.17;;;6.10;99.90;;;;;;5033770;28;20040;-71
2022/02/05 10:33:11;;;;;;;13.00;2.67;;;6.20;99.90;;;;;;5051430;28;20035;-71
2022/02/05 10:36:13;;;;;;;17.77;3.23;;;6.20;99.90;;;;;;5051567;28;20040;-71
2022/02/05 10:43:56;;;;;;;13.43;2.67;;;6.20;99.90;;;;;;5051437;28;20032;-70
2022/02/05 10:46:38;;;;;;;10.33;2.40;;;6.30;99.90;;;;;;5033487;28;20029;-70
2022/02/05 10:49:05;;;;;;;15.77;4.60;;;6.20;99.90;;;;;;5051285;28;20025;-70
2022/02/05 10:51:46;;;;;;;18.60;3.77;;;6.30;99.90;;;;;;5051294;28;20511;-70
2022/02/05 10:54:22;;;;;;;16.23;4.10;;;6.30;99.90;;;;;;5051199;28;20112;-70
2022/02/05 10:57:12;;;;;;;13.07;2.53;;;6.30;99.90;;;;;;5051585;28;20029;-71
2022/02/05 11:08:24;;;;;;;11.40;2.80;;;6.40;99.90;;;;;;5006924;28;20091;-71
2022/02/05 11:21:18;;;;;;;12.60;2.55;;;6.60;99.90;;;;;;5051169;28;20474;-71
2022/02/05 11:23:50;;;;;;;13.43;2.43;;;6.50;99.90;;;;;;5032998;28;20037;-71
2022/02/05 11:26:21;;;;;;;8.73;2.40;;;6.60;99.90;;;;;;5033165;28;20029;-71
2022/02/05 11:28:52;;;;;;;15.03;2.40;;;6.60;99.90;;;;;;5050737;28;20029;-71
2022/02/05 11:31:31;;;;;;;9.70;2.97;;;6.60;99.90;;;;;;5050648;28;20037;-71
2022/02/05 11:34:18;;;;;;;9.88;2.83;;;6.60;99.90;;;;;;5050833;28;20123;-71
2022/02/05 11:37:06;;;;;;;10.13;2.43;;;6.70;99.90;;;;;;5051421;28;20373;-71
2022/02/05 11:39:52;;;;;;;10.47;2.70;;;6.80;99.90;;;;;;5052725;28;20033;-71
2022/02/05 11:42:36;;;;;;;13.93;2.80;;;6.80;99.90;;;;;;5054779;28;20025;-71
2022/02/05 11:45:24;;;;;;;11.30;2.10;;;6.90;99.90;;;;;;5054990;28;20029;-71
2022/02/05 11:47:50;;;;;;;11.40;2.37;;;7.00;99.90;;;;;;5036585;28;20132;-71
2022/02/05 11:50:24;;;;;;;9.07;2.53;;;7.00;99.90;;;;;;5036448;28;20037;-71
2022/02/05 11:52:50;;;;;;;9.33;2.17;;;7.00;99.90;;;;;;5054315;28;20024;-71
2022/02/05 11:55:28;;;;;;;9.97;2.33;;;7.10;99.90;;;;;;5049212;23;20056;-67
2022/02/05 11:57:56;;;;;;;10.60;2.50;;;7.10;99.90;;;;;;5036311;28;20111;-67
2022/02/05 12:00:30;;;;;;;10.90;2.27;;;7.10;99.90;;;;;;5036481;28;20025;-70
2022/02/05 12:02:57;;;;;;;8.07;2.47;;;7.10;99.90;;;;;;5054273;28;20037;-67
2022/02/05 12:05:32;;;;;;;14.90;2.30;;;7.10;99.90;;;;;;5054324;28;20106;-66
2022/02/05 12:07:59;;;;;;;16.37;2.70;;;7.00;99.90;;;;;;5054489;28;20520;-66
2022/02/05 12:10:44;;;;;;;9.90;2.30;;;7.10;99.90;;;;;;5054487;28;20371;-67
2022/02/05 12:13:20;;;;;;;12.77;3.20;;;7.20;99.90;;;;;;5054044;28;20041;-67
2022/02/05 12:15:48;;;;;;;10.30;2.50;;;7.10;99.90;;;;;;5054340;28;20441;-67
2022/02/05 12:18:22;;;;;;;12.97;3.70;;;7.20;99.90;;;;;;5053993;28;20036;-67
2022/02/05 12:26:29;;;;;;;12.10;2.47;;;7.30;99.90;;;;;;5048195;28;20110;-68
2022/02/05 12:28:57;;;;;;;7.80;2.10;;;7.30;99.90;;;;;;5053948;28;20297;-68
2022/02/05 12:31:26;;;;;;;7.97;2.10;;;7.30;99.90;;;;;;5053868;28;20102;-68
2022/02/05 12:33:53;;;;;;;6.15;1.95;;;7.40;99.90;;;;;;5053884;28;20029;-68
2022/02/05 12:36:44;;;;;;;8.57;2.03;;;7.40;99.90;;;;;;5053846;28;20056;-67
2022/02/05 12:39:09;;;;;;;15.67;3.60;;;7.40;99.90;;;;;;5053916;28;20021;-68
2022/02/05 12:41:37;;;;;;;9.70;2.80;;;7.40;99.90;;;;;;5053956;28;20239;-68
2022/02/05 12:44:05;;;;;;;14.17;2.70;;;7.40;99.90;;;;;;5053482;28;20037;-68
2022/02/05 12:46:41;;;;;;;11.93;2.05;;;7.40;99.90;;;;;;5053749;28;20397;-68
2022/02/05 12:49:17;;;;;;;9.83;2.50;;;7.40;99.90;;;;;;5053466;28;20029;-69
2022/02/05 12:51:51;;;;;;;11.57;2.90;;;7.40;99.90;;;;;;5052496;28;20474;-67
2022/02/05 12:54:22;;;;;;;11.47;2.40;;;7.40;99.90;;;;;;5053625;28;20503;-68
2022/02/05 12:56:49;;;;;;;10.83;1.90;;;7.50;99.90;;;;;;5053590;28;20033;-68
2022/02/05 12:59:27;;;;;;;6.30;1.80;;;7.60;99.90;;;;;;5053261;28;20025;-67
2022/02/05 13:01:55;;;;;;;9.73;2.43;;;7.60;99.90;;;;;;5035919;28;20024;-66
2022/02/05 13:04:27;;;;;;;11.40;2.33;;;7.60;99.90;;;;;;5035201;28;20044;-67
2022/02/05 13:07:18;;;;;;;9.17;2.00;;;7.60;99.90;;;;;;5053134;28;20716;-68
2022/02/05 13:10:04;;;;;;;8.93;1.60;;;7.60;99.90;;;;;;5053012;28;20055;-68
2022/02/05 13:12:40;;;;;;;6.63;1.93;;;7.60;99.90;;;;;;5035443;28;20032;-67
2022/02/05 13:15:22;;;;;;;8.47;2.10;;;7.60;99.90;;;;;;5053268;28;20355;-67
2022/02/05 13:26:22;;;;;;;6.97;1.40;;;7.60;99.90;;;;;;5052895;28;20382;-67
2022/02/05 13:36:46;;;;;;;9.07;1.90;;;7.60;99.90;;;;;;5034979;28;20029;-67
2022/02/05 13:42:10;;;;;;;10.32;2.10;;;7.60;99.90;;;;;;5052703;28;20025;-67
2022/02/05 13:45:02;;;;;;;8.40;1.90;;;7.60;99.90;;;;;;5018748;28;20184;-67
2022/02/05 13:47:33;;;;;;;7.43;2.20;;;7.60;99.90;;;;;;5034603;28;20031;-67
2022/02/05 13:50:06;;;;;;;7.90;1.60;;;7.60;99.90;;;;;;5052529;28;20040;-66
2022/02/05 13:52:41;;;;;;;7.47;1.90;;;7.70;99.90;;;;;;5034583;28;20064;-67
2022/02/05 13:55:18;;;;;;;15.93;2.13;;;7.70;99.90;;;;;;5034512;28;20028;-68
2022/02/05 13:58:06;;;;;;;8.73;1.60;;;7.70;99.90;;;;;;5051922;28;20025;-67
2022/02/05 14:00:53;;;;;;;8.53;1.63;;;7.60;99.90;;;;;;5052087;28;20031;-67
2022/02/05 14:03:28;;;;;;;10.30;2.10;;;7.60;99.90;;;;;;5051586;28;20021;-67
2022/02/05 14:06:04;;;;;;;8.60;2.03;;;7.60;99.90;;;;;;5051993;28;20428;-67
2022/02/05 14:08:48;;;;;;;8.13;1.60;;;7.60;99.90;;;;;;5052170;28;20108;-67
2022/02/05 14:11:24;;;;;;;8.83;1.53;;;7.60;99.90;;;;;;5052008;28;20040;-67
2022/02/05 14:14:02;;;;;;;9.00;1.40;;;7.70;99.90;;;;;;5051971;28;20388;-67
2022/02/05 14:16:37;;;;;;;8.37;1.73;;;7.70;99.90;;;;;;5051965;28;20029;-67
2022/02/05 14:19:05;;;;;;;6.53;1.77;;;7.80;99.90;;;;;;5052201;28;20466;-67
2022/02/05 14:21:47;;;;;;;7.87;1.57;;;7.80;99.90;;;;;;5052066;28;20044;-67
2022/02/05 14:24:15;;;;;;;10.27;1.83;;;7.90;99.90;;;;;;5051582;28;20040;-67
2022/02/05 14:27:30;;;;;;;8.00;1.80;;;7.90;99.90;;;;;;5051774;28;20033;-67
2022/02/05 14:32:27;;;;;;;7.30;1.70;;;7.90;99.90;;;;;;5051734;28;20701;-67
2022/02/05 14:43:08;;;;;;;11.97;1.80;;;7.90;99.90;;;;;;5051346;28;20090;-67
2022/02/05 14:45:34;;;;;;;8.23;1.60;;;7.90;99.90;;;;;;5051378;28;20112;-67
2022/02/05 14:48:00;;;;;;;8.03;1.73;;;7.90;99.90;;;;;;5033807;28;20116;-67
2022/02/05 14:50:26;;;;;;;10.93;2.20;;;7.80;99.90;;;;;;5051676;28;20184;-67
2022/02/05 14:52:52;;;;;;;8.73;1.83;;;7.80;99.90;;;;;;5051367;28;20032;-67
2022/02/05 14:55:19;;;;;;;9.73;1.83;;;7.90;99.90;;;;;;5051644;28;20036;-67
2022/02/05 14:57:46;;;;;;;6.17;1.30;;;7.80;99.90;;;;;;5051495;28;20131;-68
2022/02/05 15:00:12;;;;;;;5.03;1.40;;;7.80;99.90;;;;;;5051511;28;20432;-68
2022/02/05 15:02:39;;;;;;;7.33;1.50;;;7.80;99.90;;;;;;5051803;28;20404;-67
2022/02/05 15:05:11;;;;;;;8.57;1.70;;;7.80;99.90;;;;;;5051706;28;20040;-67
2022/02/05 15:07:40;;;;;;;10.53;2.43;;;7.80;99.90;;;;;;5051726;28;20083;-67
2022/02/05 15:10:08;;;;;;;14.55;5.45;;;7.80;99.90;;;;;;5052479;28;20494;-67
2022/02/05 15:12:34;;;;;;;6.47;1.67;;;7.70;99.90;;;;;;5051805;28;20024;-68
2022/02/05 15:15:00;;;;;;;7.23;1.57;;;7.70;99.90;;;;;;5055191;28;20481;-68
2022/02/05 15:17:26;;;;;;;9.47;2.37;;;7.80;99.90;;;;;;5055611;28;20104;-68
2022/02/05 15:19:52;;;;;;;7.47;1.47;;;7.80;99.90;;;;;;5055119;28;20029;-68
2022/02/05 15:22:18;;;;;;;8.30;1.87;;;7.70;99.90;;;;;;5055251;28;20041;-68
2022/02/05 15:24:44;;;;;;;6.27;1.47;;;7.70;99.90;;;;;;5055177;28;20044;-69
2022/02/05 15:27:11;;;;;;;9.07;2.83;;;7.70;99.90;;;;;;5037266;28;20086;-68
2022/02/05 15:29:37;;;;;;;8.77;1.90;;;7.70;99.90;;;;;;5055500;28;20079;-68
2022/02/05 15:32:03;;;;;;;36.50;15.50;;;7.70;99.90;;;;;;5054710;28;20477;-68
2022/02/05 15:34:29;;;;;;;9.53;2.00;;;7.70;99.90;;;;;;5037041;28;20021;-68
2022/02/05 15:37:04;;;;;;;10.27;1.97;;;7.60;99.90;;;;;;5037097;28;20036;-68
2022/02/05 15:45:06;;;;;;;7.90;1.50;;;7.60;99.90;;;;;;5036660;28;20057;-68
2022/02/05 15:47:33;;;;;;;8.53;1.70;;;7.60;99.90;;;;;;5054824;28;20108;-68
2022/02/05 15:49:59;;;;;;;9.93;2.40;;;7.60;99.90;;;;;;5054777;28;20041;-68
2022/02/05 15:52:24;;;;;;;16.37;3.57;;;7.60;99.90;;;;;;5054673;28;20087;-68
2022/02/05 15:54:52;;;;;;;8.87;1.97;;;7.60;99.90;;;;;;5036677;28;20539;-67
2022/02/05 15:57:32;;;;;;;10.53;2.10;;;7.60;99.90;;;;;;5054620;28;20052;-68
2022/02/05 16:00:08;;;;;;;10.73;2.10;;;7.60;99.90;;;;;;5054592;28;20029;-68
2022/02/05 16:02:40;;;;;;;8.90;2.33;;;7.60;99.90;;;;;;5054613;28;20543;-69
2022/02/05 16:05:07;;;;;;;6.57;1.77;;;7.60;99.90;;;;;;5054653;28;20128;-68
2022/02/05 16:07:33;;;;;;;9.43;1.90;;;7.60;99.90;;;;;;5054640;28;20497;-68
2022/02/05 16:09:58;;;;;;;6.43;1.90;;;7.60;99.90;;;;;;5054367;28;20135;-69
2022/02/05 16:12:24;;;;;;;8.00;1.83;;;7.50;99.90;;;;;;5036423;28;20036;-68
2022/02/05 16:14:50;;;;;;;8.30;2.20;;;7.60;99.90;;;;;;5054028;28;20460;-68
2022/02/05 16:17:16;;;;;;;7.57;1.90;;;7.60;99.90;;;;;;5054031;28;20079;-68
2022/02/05 16:19:42;;;;;;;9.53;1.97;;;7.60;99.90;;;;;;5054127;28;20141;-68
2022/02/05 16:22:08;;;;;;;12.43;2.50;;;7.60;99.90;;;;;;5054072;28;20045;-68
2022/02/05 16:24:34;;;;;;;9.10;2.13;;;7.50;99.90;;;;;;5053802;28;20033;-68
2022/02/05 16:27:00;;;;;;;11.10;2.43;;;7.50;99.90;;;;;;5053936;28;20033;-68
2022/02/05 16:29:27;;;;;;;9.20;2.33;;;7.50;99.90;;;;;;5053862;28;20393;-68
2022/02/05 16:31:58;;;;;;;9.73;1.87;;;7.50;99.90;;;;;;5053991;28;20028;-67
2022/02/05 16:34:27;;;;;;;10.10;2.00;;;7.50;99.90;;;;;;5053633;28;20025;-68